Time;durP1;ratioP1;P1;durP2;ratioP2;P2;SDS_P1;SDS_P2;PMS_P1;PMS_P2;Temp;Humidity;BMP_temperature;BMP_pressure;BME280_temperature;BME280_humidity;BME280_pressure;Samples;Min_cycle;Max_cycle;Signal;HPM_P1;HPM_P2
2023/09/27 00:02:15;;;;;;;15.38;3.33;;;;;;;17.48;64.69;94276.41;5083833;28;20017;-81
2023/09/27 00:04:41;;;;;;;12.20;3.53;;;;;;;17.49;64.62;94269.91;5085559;28;20020;-81
2023/09/27 00:07:06;;;;;;;8.63;3.40;;;;;;;17.45;65.02;94267.13;5085711;28;20029;-80
2023/09/27 00:09:32;;;;;;;12.05;3.85;;;;;;;17.41;64.84;94269.72;5085590;28;20028;-81
2023/09/27 00:11:58;;;;;;;8.73;3.20;;;;;;;17.45;65.01;94275.97;5084535;28;20100;-81
2023/09/27 00:14:24;;;;;;;9.30;3.22;;;;;;;17.42;65.41;94275.88;5085383;28;20131;-81
2023/09/27 00:16:50;;;;;;;8.02;3.88;;;;;;;17.40;65.85;94270.84;5085570;28;20306;-81
2023/09/27 00:19:15;;;;;;;12.75;3.80;;;;;;;17.37;65.36;94268.84;5085389;28;20024;-82
2023/09/27 00:21:41;;;;;;;17.05;4.70;;;;;;;17.34;65.57;94258.75;5067668;28;20066;-82
2023/09/27 00:24:07;;;;;;;14.68;4.80;;;;;;;17.32;65.71;94261.03;5085528;28;20016;-82
2023/09/27 00:26:32;;;;;;;9.05;3.58;;;;;;;17.30;65.70;94260.59;5085543;28;20305;-80
2023/09/27 00:28:58;;;;;;;15.93;4.15;;;;;;;17.28;65.74;94256.66;5067194;28;20196;-81
2023/09/27 00:31:23;;;;;;;14.30;4.65;;;;;;;17.25;66.29;94252.75;5085285;28;20023;-80
2023/09/27 00:33:49;;;;;;;10.48;3.78;;;;;;;17.20;65.32;94258.41;5085309;28;20043;-80
2023/09/27 00:36:16;;;;;;;13.82;3.78;;;;;;;17.18;64.30;94252.56;5083760;28;20027;-80
2023/09/27 00:38:42;;;;;;;11.60;2.92;;;;;;;17.17;64.83;94256.38;5084560;28;20478;-80
2023/09/27 00:41:08;;;;;;;6.88;3.25;;;;;;;17.20;63.75;94255.69;5083819;28;20088;-80
2023/09/27 00:43:34;;;;;;;10.45;3.75;;;;;;;17.20;63.71;94255.69;5084941;28;20016;-80
2023/09/27 00:46:02;;;;;;;12.48;2.95;;;;;;;17.19;64.00;94240.66;5084861;28;20022;-80
2023/09/27 00:48:29;;;;;;;13.68;3.28;;;;;;;17.22;63.50;94242.66;5067145;28;20103;-80
2023/09/27 00:50:55;;;;;;;12.90;3.03;;;;;;;17.21;62.46;94241.09;5084725;28;20016;-81
2023/09/27 00:53:23;;;;;;;8.63;3.22;;;;;;;17.21;62.02;94241.88;5067106;28;20096;-80
2023/09/27 00:55:49;;;;;;;11.20;2.42;;;;;;;17.20;61.24;94250.31;5085165;28;20066;-80
2023/09/27 00:58:19;;;;;;;8.57;2.70;;;;;;;17.24;60.47;94246.59;5084761;28;20016;-79
2023/09/27 01:00:49;;;;;;;12.88;3.25;;;;;;;17.28;59.87;94252.06;5084676;28;20012;-78
2023/09/27 01:03:14;;;;;;;12.63;2.97;;;;;;;17.28;59.32;94256.66;5066852;28;20024;-78
2023/09/27 01:05:41;;;;;;;10.02;2.72;;;;;;;17.29;59.11;94259.00;5084339;28;20022;-78
2023/09/27 01:08:07;;;;;;;8.85;2.72;;;;;;;17.35;59.33;94249.53;5083409;28;20062;-79
2023/09/27 01:10:32;;;;;;;9.13;3.08;;;;;;;17.34;59.12;94252.56;5084409;28;20020;-80
2023/09/27 01:12:58;;;;;;;20.52;2.70;;;;;;;17.36;58.83;94248.44;5083182;28;20020;-80
2023/09/27 01:15:23;;;;;;;12.48;3.20;;;;;;;17.36;58.21;94259.19;5084248;28;20241;-79
2023/09/27 01:17:53;;;;;;;9.73;2.78;;;;;;;17.39;58.24;94255.81;5084537;28;20020;-80
2023/09/27 01:20:19;;;;;;;9.02;2.75;;;;;;;17.40;58.36;94249.28;5084567;28;20012;-79
2023/09/27 01:23:02;;;;;;;12.98;3.05;;;;;;;17.40;58.25;94248.50;5084305;28;20027;-78
2023/09/27 01:25:32;;;;;;;11.63;3.10;;;;;;;17.39;58.78;94252.34;5084082;28;20016;-80
2023/09/27 01:28:01;;;;;;;10.32;3.13;;;;;;;17.35;59.41;94246.84;5084124;28;20088;-79
2023/09/27 01:30:34;;;;;;;13.75;2.80;;;;;;;17.37;59.20;94249.19;5066149;28;20031;-80
2023/09/27 01:33:07;;;;;;;7.90;2.53;;;;;;;17.37;58.68;94246.50;5084101;28;20031;-81
2023/09/27 01:35:37;;;;;;;8.35;2.55;;;;;;;17.35;58.87;94246.84;5083807;28;20342;-81
2023/09/27 01:38:04;;;;;;;15.90;3.05;;;;;;;17.35;59.12;94254.16;5066161;28;20020;-81
2023/09/27 01:40:30;;;;;;;8.45;3.10;;;;;;;17.34;58.91;94250.69;5083997;28;20040;-80
2023/09/27 01:43:00;;;;;;;11.27;2.90;;;;;;;17.36;58.62;94247.63;5083883;28;20025;-80
2023/09/27 01:45:27;;;;;;;12.43;3.25;;;;;;;17.34;58.41;94247.19;5083722;28;20059;-81
2023/09/27 01:47:53;;;;;;;12.40;2.95;;;;;;;17.36;58.11;94253.81;5083916;28;20168;-80
2023/09/27 01:50:25;;;;;;;21.90;3.83;;;;;;;17.34;58.56;94252.56;5083669;28;20307;-81
2023/09/27 01:52:55;;;;;;;7.60;2.35;;;;;;;17.30;58.74;94255.19;5066165;28;20024;-81
2023/09/27 01:55:21;;;;;;;9.73;3.20;;;;;;;17.29;58.85;94245.53;5083472;28;20208;-81
2023/09/27 01:57:46;;;;;;;10.85;2.45;;;;;;;17.30;58.95;94249.00;5065757;28;20024;-81
2023/09/27 02:00:16;;;;;;;16.92;3.25;;;;;;;17.28;59.22;94256.66;5065551;28;20349;-81
2023/09/27 02:02:49;;;;;;;12.32;2.53;;;;;;;17.27;59.44;94241.63;5083483;28;20035;-81
2023/09/27 02:05:14;;;;;;;7.45;2.67;;;;;;;17.31;59.38;94245.97;5083347;28;20028;-81
2023/09/27 02:07:40;;;;;;;17.38;4.07;;;;;;;17.27;59.42;94247.03;5065591;28;20104;-82
2023/09/27 02:10:07;;;;;;;12.80;3.03;;;;;;;17.25;59.16;94247.34;5083349;28;20236;-81
2023/09/27 02:12:32;;;;;;;13.30;2.88;;;;;;;17.23;59.21;94244.22;5083287;28;20023;-81
2023/09/27 02:14:58;;;;;;;12.80;2.75;;;;;;;17.21;59.60;94251.88;5065305;28;20112;-81
2023/09/27 02:17:25;;;;;;;9.48;3.00;;;;;;;17.20;59.76;94244.94;5065497;28;20257;-81
2023/09/27 02:19:51;;;;;;;8.13;2.10;;;;;;;17.21;59.96;94249.19;5083514;28;20032;-81
2023/09/27 02:22:18;;;;;;;10.20;2.60;;;;;;;17.22;59.95;94248.06;5083129;28;20062;-81
2023/09/27 02:24:43;;;;;;;9.88;3.05;;;;;;;17.17;59.89;94251.00;5083003;28;20031;-81
2023/09/27 02:27:10;;;;;;;13.48;3.78;;;;;;;17.16;60.28;94249.44;5083148;28;20223;-81
2023/09/27 02:29:40;;;;;;;17.02;3.15;;;;;;;17.15;59.90;94247.88;5083032;28;20024;-81
2023/09/27 02:32:09;;;;;;;5.60;2.65;;;;;;;17.14;59.83;94249.00;5083078;28;20087;-81
2023/09/27 02:34:37;;;;;;;6.70;2.83;;;;;;;17.10;60.09;94246.22;5082938;28;20020;-81
2023/09/27 02:37:03;;;;;;;11.52;3.35;;;;;;;17.12;60.24;94249.34;5065021;28;20070;-81
2023/09/27 02:39:32;;;;;;;11.68;3.40;;;;;;;17.06;60.45;94253.41;5083048;28;20020;-81
2023/09/27 02:41:58;;;;;;;8.98;2.97;;;;;;;17.07;60.17;94248.81;5082999;28;20028;-82
2023/09/27 02:44:24;;;;;;;9.02;2.92;;;;;;;17.04;60.31;94251.06;5082877;28;20020;-82
2023/09/27 02:46:51;;;;;;;13.90;3.63;;;;;;;17.03;59.95;94262.94;5082993;28;20218;-82
2023/09/27 02:49:17;;;;;;;11.63;2.78;;;;;;;16.97;60.38;94255.47;5082834;28;20031;-81
2023/09/27 02:51:42;;;;;;;10.65;3.45;;;;;;;16.92;60.59;94259.19;5082780;28;20024;-81
2023/09/27 02:54:09;;;;;;;10.18;3.20;;;;;;;16.91;60.71;94260.31;5083004;28;20207;-82
2023/09/27 02:56:34;;;;;;;11.20;2.90;;;;;;;16.89;60.62;94267.94;5064870;28;20012;-81
2023/09/27 02:59:00;;;;;;;9.57;3.20;;;;;;;16.93;60.78;94268.81;5082703;28;20024;-81
2023/09/27 03:01:26;;;;;;;8.68;3.40;;;;;;;16.91;60.56;94264.91;5082657;28;20054;-81
2023/09/27 03:03:52;;;;;;;11.07;2.90;;;;;;;16.89;60.67;94265.25;5082870;28;20246;-81
2023/09/27 03:06:17;;;;;;;11.23;3.55;;;;;;;16.82;60.82;94267.75;5082563;28;20294;-81
2023/09/27 03:08:46;;;;;;;9.48;3.15;;;;;;;16.80;60.77;94268.06;5082729;28;20035;-81
2023/09/27 03:11:12;;;;;;;15.80;3.22;;;;;;;16.81;60.64;94271.56;5082713;28;20223;-81
2023/09/27 03:13:39;;;;;;;12.40;3.28;;;;;;;16.79;60.71;94271.88;5082435;28;20039;-81
2023/09/27 03:16:05;;;;;;;9.05;3.45;;;;;;;16.77;60.64;94270.66;5082489;28;20016;-81
2023/09/27 03:18:31;;;;;;;15.10;3.13;;;;;;;16.77;60.36;94281.41;5082632;28;20065;-81
2023/09/27 03:20:59;;;;;;;10.50;2.90;;;;;;;16.75;60.48;94272.91;5082507;28;20019;-81
2023/09/27 03:23:28;;;;;;;8.15;2.55;;;;;;;16.75;60.81;94278.28;5082507;28;20066;-81
2023/09/27 03:25:55;;;;;;;11.23;2.78;;;;;;;16.74;60.56;94279.41;5082345;28;20008;-81
2023/09/27 03:28:22;;;;;;;17.55;2.58;;;;;;;16.73;60.51;94270.56;5064671;28;20028;-82
2023/09/27 03:30:47;;;;;;;7.60;2.67;;;;;;;16.68;60.55;94267.31;5082322;28;20074;-82
2023/09/27 03:33:13;;;;;;;11.05;2.88;;;;;;;16.65;60.99;94272.25;5082526;28;20020;-82
2023/09/27 03:35:39;;;;;;;14.82;3.15;;;;;;;16.64;61.02;94268.00;5082220;28;20016;-82
2023/09/27 03:38:05;;;;;;;10.52;2.90;;;;;;;16.61;60.72;94266.00;5084484;28;20322;-82
2023/09/27 03:40:31;;;;;;;10.13;3.10;;;;;;;16.64;60.90;94275.28;5086283;28;20021;-81
2023/09/27 03:42:57;;;;;;;9.30;3.22;;;;;;;16.63;60.78;94271.81;5086192;28;20024;-81
2023/09/27 03:45:22;;;;;;;9.85;3.38;;;;;;;16.64;60.93;94272.59;5086187;28;20188;-81
2023/09/27 03:47:48;;;;;;;9.63;3.28;;;;;;;16.61;60.92;94274.06;5086376;28;20285;-82
2023/09/27 03:50:14;;;;;;;14.25;3.10;;;;;;;16.60;61.20;94275.19;5086020;28;20024;-81
2023/09/27 03:52:40;;;;;;;6.43;3.13;;;;;;;16.61;60.93;94281.38;5085984;28;20322;-82
2023/09/27 03:55:10;;;;;;;7.22;2.90;;;;;;;16.61;60.99;94290.22;5085826;28;20020;-81
2023/09/27 03:57:35;;;;;;;9.75;3.60;;;;;;;16.59;61.27;94289.78;5085851;28;20020;-81
2023/09/27 04:00:01;;;;;;;10.55;4.18;;;;;;;16.62;61.17;94285.63;5085992;28;20195;-81
2023/09/27 04:02:29;;;;;;;14.77;4.22;;;;;;;16.60;61.49;94288.63;5085817;28;20319;-81
2023/09/27 04:04:54;;;;;;;17.75;3.45;;;;;;;16.59;61.44;94292.47;5085920;28;20040;-81
2023/09/27 04:07:20;;;;;;;10.07;3.53;;;;;;;16.59;61.38;94302.47;5067946;28;20215;-81
2023/09/27 04:09:46;;;;;;;17.92;3.78;;;;;;;16.51;61.53;94290.69;5085751;28;20093;-81
2023/09/27 04:12:11;;;;;;;9.00;3.00;;;;;;;16.54;61.36;94294.59;5085875;28;20023;-81
2023/09/27 04:14:38;;;;;;;12.95;3.75;;;;;;;16.53;61.46;94293.81;5085610;28;20044;-81
2023/09/27 04:17:03;;;;;;;19.92;3.85;;;;;;;16.51;61.65;94295.31;5085623;28;20100;-81
2023/09/27 04:19:30;;;;;;;16.50;3.00;;;;;;;16.50;61.85;94299.09;5067838;28;20017;-82
2023/09/27 04:21:56;;;;;;;11.73;3.20;;;;;;;16.50;62.05;94299.88;5085479;28;20020;-81
2023/09/27 04:24:23;;;;;;;21.25;3.30;;;;;;;16.50;62.09;94307.16;5085512;28;20274;-82
2023/09/27 04:26:48;;;;;;;23.30;3.70;;;;;;;16.52;62.36;94302.22;5085547;28;20082;-81
2023/09/27 04:29:14;;;;;;;9.43;4.25;;;;;;;16.48;62.24;94307.50;5085307;28;20044;-80
2023/09/27 04:31:39;;;;;;;15.63;3.67;;;;;;;16.46;62.44;94301.69;5085371;28;20087;-80
2023/09/27 04:34:05;;;;;;;16.30;3.67;;;;;;;16.46;62.38;94304.38;5085195;28;20024;-80
2023/09/27 04:36:31;;;;;;;8.85;3.20;;;;;;;16.49;62.20;94309.09;5067470;28;20223;-81
2023/09/27 04:38:56;;;;;;;15.55;3.17;;;;;;;16.51;62.27;94306.84;5067325;28;20021;-81
2023/09/27 04:41:22;;;;;;;22.60;3.47;;;;;;;16.54;62.33;94308.84;5067439;28;20199;-81
2023/09/27 04:43:47;;;;;;;10.65;3.58;;;;;;;16.57;62.44;94304.69;5085392;28;20314;-81
2023/09/27 04:46:17;;;;;;;16.73;3.40;;;;;;;16.62;62.43;94313.31;5084031;28;20215;-81
2023/09/27 04:48:44;;;;;;;9.63;3.47;;;;;;;16.63;63.03;94309.50;5067081;28;20036;-81
2023/09/27 04:51:09;;;;;;;11.57;3.28;;;;;;;16.62;63.11;94310.59;5083627;28;20032;-82
2023/09/27 04:53:37;;;;;;;16.08;3.80;;;;;;;16.65;63.39;94318.03;5084769;28;20031;-81
2023/09/27 04:56:11;;;;;;;9.73;3.50;;;;;;;16.64;63.43;94316.44;5084771;28;20047;-81
2023/09/27 04:58:38;;;;;;;19.83;4.07;;;;;;;16.63;63.35;94314.88;5084845;28;20282;-81
2023/09/27 05:01:05;;;;;;;11.10;3.40;;;;;;;16.71;63.33;94318.56;5084816;28;20028;-81
2023/09/27 05:03:31;;;;;;;17.33;4.05;;;;;;;16.78;63.44;94331.44;5084524;28;20028;-81
2023/09/27 05:05:57;;;;;;;16.95;4.03;;;;;;;16.80;63.30;94316.50;5084606;28;20031;-82
2023/09/27 05:08:24;;;;;;;16.95;3.92;;;;;;;16.84;63.26;94319.34;5084548;28;20046;-80
2023/09/27 05:10:49;;;;;;;14.68;3.88;;;;;;;16.87;63.36;94317.88;5084588;28;20047;-81
2023/09/27 05:13:15;;;;;;;6.60;3.38;;;;;;;16.94;63.57;94326.94;5084499;28;20059;-82
2023/09/27 05:15:40;;;;;;;12.20;4.25;;;;;;;16.94;63.29;94324.25;5083199;28;20036;-82
2023/09/27 05:18:05;;;;;;;17.88;3.90;;;;;;;16.99;63.35;94325.91;5084513;28;20024;-82
2023/09/27 05:20:31;;;;;;;13.23;3.50;;;;;;;17.01;63.37;94319.03;5084426;28;20069;-82
2023/09/27 05:22:56;;;;;;;8.57;3.97;;;;;;;17.04;63.50;94322.97;5084154;28;20031;-82
2023/09/27 05:25:22;;;;;;;14.63;4.63;;;;;;;17.07;63.32;94318.81;5084474;28;20048;-82
2023/09/27 05:27:48;;;;;;;24.67;5.50;;;;;;;17.10;63.13;94320.84;5084492;28;20024;-82
2023/09/27 05:30:15;;;;;;;18.33;4.75;;;;;;;17.13;63.41;94320.13;5084154;28;20035;-83
2023/09/27 05:32:43;;;;;;;16.23;4.13;;;;;;;17.14;63.15;94317.09;5066413;28;20024;-82
2023/09/27 05:35:08;;;;;;;21.02;4.20;;;;;;;17.15;63.20;94324.06;5084107;28;20030;-81
2023/09/27 05:37:33;;;;;;;22.15;4.65;;;;;;;17.20;63.61;94320.34;5083955;28;20044;-81
2023/09/27 05:39:59;;;;;;;17.27;4.60;;;;;;;17.22;63.12;94318.09;5083854;28;20021;-81
2023/09/27 05:42:25;;;;;;;9.40;3.92;;;;;;;17.21;63.26;94327.28;5084020;28;20032;-81
2023/09/27 05:44:50;;;;;;;17.20;4.50;;;;;;;17.21;63.17;94327.28;5084058;28;20024;-81
2023/09/27 05:47:16;;;;;;;21.00;4.32;;;;;;;17.23;62.98;94330.41;5084000;28;20028;-81
2023/09/27 05:49:42;;;;;;;12.20;3.85;;;;;;;17.33;63.36;94329.94;5083605;28;20308;-81
2023/09/27 05:52:12;;;;;;;12.55;4.03;;;;;;;17.34;62.74;94331.50;5083659;28;20235;-82
2023/09/27 05:54:39;;;;;;;13.35;4.15;;;;;;;17.45;62.61;94327.16;5083971;28;20214;-81
2023/09/27 05:57:06;;;;;;;9.35;3.45;;;;;;;17.53;62.29;94328.16;5083707;28;20055;-81
2023/09/27 05:59:32;;;;;;;13.40;4.55;;;;;;;17.59;61.94;94326.75;5083048;28;20254;-81
2023/09/27 06:01:58;;;;;;;19.52;3.97;;;;;;;17.69;61.97;94336.25;5065874;28;20044;-80
2023/09/27 06:04:24;;;;;;;9.70;4.63;;;;;;;17.73;61.09;94339.84;5083469;28;20032;-83
2023/09/27 06:06:50;;;;;;;9.65;3.65;;;;;;;17.81;61.26;94338.88;5065565;28;20024;-82
2023/09/27 06:09:16;;;;;;;11.77;4.00;;;;;;;17.92;60.77;94341.09;5082964;28;20227;-80
2023/09/27 06:11:42;;;;;;;14.55;3.80;;;;;;;18.01;63.53;94341.69;5083318;28;20044;-80
2023/09/27 06:14:10;;;;;;;9.45;3.70;;;;;;;18.11;65.09;94337.69;5083150;28;20044;-80
2023/09/27 06:16:37;;;;;;;16.67;3.35;;;;;;;18.27;62.31;94348.47;5083171;28;20028;-81
2023/09/27 06:19:04;;;;;;;12.35;3.70;;;;;;;18.41;60.80;94346.09;5083154;28;20046;-80
2023/09/27 06:21:29;;;;;;;8.35;3.90;;;;;;;18.52;60.16;94344.44;5083103;28;20052;-80
2023/09/27 06:23:55;;;;;;;11.40;4.05;;;;;;;18.68;59.69;94343.63;5065014;28;20021;-81
2023/09/27 06:26:21;;;;;;;10.68;3.13;;;;;;;18.83;58.13;94348.22;5065231;28;20020;-84
2023/09/27 06:28:47;;;;;;;8.48;3.83;;;;;;;18.95;58.39;94356.19;5083087;28;20039;-83
2023/09/27 06:31:13;;;;;;;17.65;3.70;;;;;;;19.09;57.69;94344.91;5065152;28;20024;-83
2023/09/27 06:33:45;;;;;;;14.93;3.70;;;;;;;19.19;57.51;94357.84;5081852;28;20342;-83
2023/09/27 06:36:11;;;;;;;12.45;3.58;;;;;;;19.31;56.69;94351.50;5082742;28;20020;-82
2023/09/27 06:38:37;;;;;;;8.82;3.60;;;;;;;19.42;56.11;94347.09;5082904;28;20323;-83
2023/09/27 06:41:03;;;;;;;10.15;3.03;;;;;;;19.53;56.08;94354.63;5082854;28;20023;-80
2023/09/27 06:43:31;;;;;;;13.32;4.50;;;;;;;19.59;54.95;94345.09;5082795;28;20031;-80
2023/09/27 06:45:57;;;;;;;10.00;3.92;;;;;;;19.62;54.92;94355.97;5082755;28;20047;-80
2023/09/27 06:48:24;;;;;;;26.35;4.47;;;;;;;19.73;54.71;94356.19;5082503;28;20026;-79
2023/09/27 06:50:49;;;;;;;16.42;3.85;;;;;;;19.78;54.26;94347.78;5082955;28;20188;-80
2023/09/27 06:53:16;;;;;;;15.40;3.55;;;;;;;19.85;53.85;94347.13;5082715;28;20027;-79
2023/09/27 06:55:44;;;;;;;14.55;3.92;;;;;;;19.95;53.85;94351.16;5089624;28;20437;-80
2023/09/27 06:58:09;;;;;;;11.93;3.78;;;;;;;19.97;53.60;94351.59;5082832;28;20078;-88
2023/09/27 07:00:35;;;;;;;12.73;3.38;;;;;;;20.03;53.14;94353.63;5082627;28;20016;-81
2023/09/27 07:03:00;;;;;;;11.98;3.70;;;;;;;20.12;53.46;94364.19;5082593;28;20016;-75
2023/09/27 07:05:26;;;;;;;11.80;5.07;;;;;;;20.19;52.89;94356.22;5082331;28;20307;-75
2023/09/27 07:07:53;;;;;;;12.32;4.38;;;;;;;20.29;53.46;94364.84;5082347;28;20027;-76
2023/09/27 07:10:19;;;;;;;12.20;4.47;;;;;;;20.38;53.22;94368.09;5064713;28;20318;-76
2023/09/27 07:12:46;;;;;;;15.90;4.28;;;;;;;20.38;52.18;94366.16;5067483;28;20044;-75
2023/09/27 07:15:14;;;;;;;15.23;4.93;;;;;;;20.50;52.54;94370.63;5086719;28;20351;-75
2023/09/27 07:17:40;;;;;;;20.00;5.13;;;;;;;20.59;51.37;94371.16;5086391;28;20025;-75
2023/09/27 07:20:13;;;;;;;16.50;4.05;;;;;;;20.66;52.13;94369.69;5086465;28;20024;-75
2023/09/27 07:22:39;;;;;;;16.85;3.63;;;;;;;20.71;50.49;94375.59;5086339;28;20028;-76
2023/09/27 07:25:12;;;;;;;17.45;3.95;;;;;;;20.75;51.10;94370.22;5086284;28;20070;-77
2023/09/27 07:27:37;;;;;;;10.43;4.18;;;;;;;20.81;50.67;94368.78;5086369;28;20020;-81
2023/09/27 07:30:03;;;;;;;14.38;3.47;;;;;;;20.89;50.54;94370.44;5085962;28;20329;-77
2023/09/27 07:32:30;;;;;;;12.95;3.25;;;;;;;20.95;50.15;94368.19;5086540;28;20035;-82
2023/09/27 07:34:58;;;;;;;13.57;3.38;;;;;;;21.02;49.95;94371.78;5086336;28;20087;-86
2023/09/27 07:37:24;;;;;;;11.48;3.25;;;;;;;21.05;49.72;94372.97;5086427;28;20039;-80
2023/09/27 07:39:49;;;;;;;12.48;3.80;;;;;;;21.12;49.37;94370.34;5086245;28;20303;-81
2023/09/27 07:42:15;;;;;;;14.13;3.63;;;;;;;21.18;48.70;94362.69;5083704;28;20013;-81
2023/09/27 07:44:40;;;;;;;14.05;3.08;;;;;;;21.15;48.75;94368.84;5085317;28;20028;-80
2023/09/27 07:47:06;;;;;;;13.68;3.47;;;;;;;21.17;48.86;94370.03;5085050;28;20021;-80
2023/09/27 07:49:32;;;;;;;17.25;3.75;;;;;;;21.26;48.91;94369.75;5083543;28;20302;-81
2023/09/27 07:51:57;;;;;;;20.73;3.88;;;;;;;21.31;49.29;94374.84;5083710;28;20074;-81
2023/09/27 07:54:24;;;;;;;17.48;3.15;;;;;;;21.15;48.90;94360.72;5083426;28;20020;-80
2023/09/27 07:56:50;;;;;;;19.33;3.63;;;;;;;21.32;48.15;94359.38;5065793;28;20016;-80
2023/09/27 07:59:15;;;;;;;17.92;3.17;;;;;;;21.36;48.27;94369.09;5065296;28;20031;-81
2023/09/27 08:01:41;;;;;;;16.63;4.03;;;;;;;21.39;47.56;94371.09;5083908;28;20033;-80
2023/09/27 08:04:08;;;;;;;12.45;3.75;;;;;;;21.49;47.75;94366.94;5066662;28;20032;-81
2023/09/27 08:06:33;;;;;;;17.23;3.80;;;;;;;21.56;47.33;94360.84;5084873;28;20032;-81
2023/09/27 08:09:00;;;;;;;21.40;4.28;;;;;;;21.58;47.10;94369.38;5085538;28;20062;-81
2023/09/27 08:11:26;;;;;;;14.88;4.25;;;;;;;21.61;47.04;94363.19;5085823;28;20024;-81
2023/09/27 08:13:52;;;;;;;17.52;3.97;;;;;;;21.67;46.96;94364.44;5085394;28;20242;-81
2023/09/27 08:16:17;;;;;;;17.02;4.28;;;;;;;21.74;47.06;94371.88;5085679;28;20020;-81
2023/09/27 08:18:43;;;;;;;15.50;3.97;;;;;;;21.75;46.45;94366.06;5085850;28;20020;-81
2023/09/27 08:21:09;;;;;;;20.05;4.07;;;;;;;21.78;46.71;94368.03;5085441;28;20023;-81
2023/09/27 08:23:34;;;;;;;20.45;3.80;;;;;;;21.83;46.38;94356.84;5084874;28;20315;-81
2023/09/27 08:26:00;;;;;;;23.60;3.65;;;;;;;21.92;46.26;94353.03;5085425;28;20059;-81
2023/09/27 08:28:27;;;;;;;19.63;3.40;;;;;;;21.93;45.52;94357.34;5085520;28;20272;-81
2023/09/27 08:31:00;;;;;;;16.92;3.60;;;;;;;21.98;46.34;94362.41;5085326;28;20028;-81
2023/09/27 08:33:26;;;;;;;10.82;4.20;;;;;;;21.97;46.25;94355.44;5067412;28;20020;-81
2023/09/27 08:35:52;;;;;;;7.60;2.67;;;;;;;21.97;45.35;94358.16;5085420;28;20027;-81
2023/09/27 08:38:18;;;;;;;14.82;2.70;;;;;;;22.04;46.25;94350.06;5085355;28;20036;-81
2023/09/27 08:40:47;;;;;;;6.95;2.88;;;;;;;22.07;44.69;94346.59;5085231;28;20013;-81
2023/09/27 08:43:15;;;;;;;17.55;3.78;;;;;;;22.10;44.88;94353.22;5085061;28;20254;-81
2023/09/27 08:45:41;;;;;;;14.10;3.33;;;;;;;22.15;44.07;94353.66;5085117;28;20314;-81
2023/09/27 08:48:09;;;;;;;8.07;3.17;;;;;;;22.19;42.93;94350.97;5085253;28;20027;-81
2023/09/27 08:50:37;;;;;;;11.75;3.67;;;;;;;22.28;41.94;94356.13;5084977;28;20039;-80
2023/09/27 08:53:02;;;;;;;7.45;2.83;;;;;;;22.34;42.46;94349.19;5067111;28;20056;-81
2023/09/27 08:55:28;;;;;;;11.32;2.95;;;;;;;22.44;41.97;94348.47;5084853;28;20247;-81
2023/09/27 08:57:56;;;;;;;11.40;3.78;;;;;;;22.56;42.24;94348.19;5084660;28;20069;-80
2023/09/27 09:00:26;;;;;;;15.75;3.10;;;;;;;22.62;41.70;94349.38;5084900;28;20051;-80
2023/09/27 09:02:56;;;;;;;11.57;3.03;;;;;;;22.74;42.20;94344.81;5084842;28;20065;-81
2023/09/27 09:05:23;;;;;;;8.93;2.92;;;;;;;22.79;41.48;94358.03;5084695;28;20028;-80
2023/09/27 09:07:49;;;;;;;14.35;3.40;;;;;;;22.82;40.61;94354.56;5066734;28;20028;-81
2023/09/27 09:10:16;;;;;;;19.33;3.38;;;;;;;22.97;40.91;94356.19;5084467;28;20276;-81
2023/09/27 09:12:43;;;;;;;6.90;2.85;;;;;;;23.08;40.69;94347.34;5084384;28;20095;-81
2023/09/27 09:15:26;;;;;;;12.10;3.40;;;;;;;23.20;40.22;94336.13;5084331;28;20025;-81
2023/09/27 09:17:53;;;;;;;9.88;3.30;;;;;;;23.25;40.75;94343.16;5084616;28;20092;-81
2023/09/27 09:20:23;;;;;;;14.95;3.33;;;;;;;23.33;40.40;94340.09;5084350;28;20329;-81
2023/09/27 09:22:53;;;;;;;8.13;2.50;;;;;;;23.40;39.16;94337.38;5084452;28;20219;-81
2023/09/27 09:25:20;;;;;;;16.10;3.00;;;;;;;23.46;39.05;94342.47;5066486;28;20024;-81
2023/09/27 09:28:01;;;;;;;14.55;2.90;;;;;;;23.41;38.69;94343.63;5084258;28;20123;-80
2023/09/27 09:30:39;;;;;;;8.38;2.95;;;;;;;23.32;38.81;94330.34;5084092;28;20025;-81
2023/09/27 09:33:24;;;;;;;6.15;2.90;;;;;;;23.28;39.26;94343.16;5083942;28;20047;-80
2023/09/27 09:35:51;;;;;;;9.27;2.38;;;;;;;23.38;38.74;94330.78;5083624;28;20020;-81
2023/09/27 09:38:30;;;;;;;17.33;4.40;;;;;;;23.54;39.43;94327.72;5084080;28;20020;-80
2023/09/27 09:41:00;;;;;;;10.98;2.70;;;;;;;23.66;39.13;94332.03;5084023;28;20017;-80
2023/09/27 09:43:43;;;;;;;7.20;2.83;;;;;;;23.77;39.42;94330.13;5083696;28;20028;-81
2023/09/27 09:46:10;;;;;;;9.70;3.28;;;;;;;23.81;38.90;94331.72;5065915;28;20024;-82
2023/09/27 09:48:38;;;;;;;12.98;3.33;;;;;;;23.82;39.06;94327.03;5083998;28;20020;-81
2023/09/27 09:51:07;;;;;;;9.38;3.30;;;;;;;23.87;38.78;94320.44;5083689;28;20028;-81
2023/09/27 09:53:40;;;;;;;15.75;3.15;;;;;;;23.89;39.29;94313.44;5065948;28;20016;-81
2023/09/27 09:56:10;;;;;;;10.45;3.95;;;;;;;23.96;39.41;94315.41;5083382;28;20085;-82
2023/09/27 09:58:47;;;;;;;8.85;2.60;;;;;;;23.95;38.97;94313.84;5083783;28;20020;-82
2023/09/27 10:01:21;;;;;;;11.65;3.03;;;;;;;24.08;38.39;94309.56;5084023;28;20235;-82
2023/09/27 10:03:48;;;;;;;14.30;3.50;;;;;;;24.18;38.83;94308.00;5083437;28;20031;-81
2023/09/27 10:06:18;;;;;;;5.47;2.60;;;;;;;24.23;38.42;94311.13;5083365;28;20027;-81
2023/09/27 10:08:47;;;;;;;11.93;3.15;;;;;;;24.31;37.65;94301.00;5083443;28;20031;-81
2023/09/27 10:11:13;;;;;;;8.35;3.53;;;;;;;24.00;37.92;94297.13;5083281;28;20107;-82
2023/09/27 10:13:39;;;;;;;12.70;2.80;;;;;;;23.97;38.07;94282.31;5083035;28;20032;-82
2023/09/27 10:16:05;;;;;;;13.50;2.90;;;;;;;24.22;37.85;94293.25;5083307;28;20028;-82
2023/09/27 10:18:41;;;;;;;11.98;3.22;;;;;;;24.48;37.06;94302.16;5065460;28;20020;-81
2023/09/27 10:21:08;;;;;;;26.25;3.53;;;;;;;24.66;36.97;94296.72;5083255;28;20023;-82
2023/09/27 10:23:45;;;;;;;17.27;3.17;;;;;;;24.84;36.45;94296.66;5083107;28;20323;-81
2023/09/27 10:26:26;;;;;;;17.50;3.47;;;;;;;25.00;36.05;94294.28;5083186;28;20021;-82
2023/09/27 10:29:03;;;;;;;17.02;3.50;;;;;;;25.12;35.86;94290.34;5083389;28;20222;-82
2023/09/27 10:31:30;;;;;;;18.88;3.42;;;;;;;25.12;35.59;94289.59;5083056;28;20025;-82
2023/09/27 10:33:56;;;;;;;7.20;2.53;;;;;;;25.12;35.36;94276.72;5083233;28;20028;-82
2023/09/27 10:36:21;;;;;;;9.85;3.25;;;;;;;25.05;35.12;94275.97;5083251;28;20282;-82
2023/09/27 10:38:50;;;;;;;16.85;3.10;;;;;;;24.99;34.95;94276.38;5065187;28;20257;-82
2023/09/27 10:41:42;;;;;;;11.35;2.58;;;;;;;24.87;35.25;94276.00;5083076;28;20028;-82
2023/09/27 10:44:08;;;;;;;10.55;2.80;;;;;;;24.81;35.59;94270.19;5083064;28;20258;-82
2023/09/27 10:46:43;;;;;;;11.70;3.08;;;;;;;24.76;35.62;94259.69;5082671;28;20099;-82
2023/09/27 10:49:09;;;;;;;13.00;3.50;;;;;;;24.67;35.82;94281.13;5064964;28;20020;-82
2023/09/27 10:51:35;;;;;;;12.27;4.10;;;;;;;24.68;35.70;94278.00;5082933;28;20040;-82
2023/09/27 10:54:08;;;;;;;10.02;2.92;;;;;;;24.82;35.70;94274.47;5082866;28;20020;-82
2023/09/27 10:56:35;;;;;;;12.25;2.72;;;;;;;24.87;35.99;94273.28;5082761;28;20250;-82
2023/09/27 10:59:02;;;;;;;16.98;3.53;;;;;;;24.90;35.16;94258.88;5065014;28;20035;-82
2023/09/27 11:01:28;;;;;;;17.35;3.10;;;;;;;24.94;35.30;94246.78;5082795;28;20027;-82
2023/09/27 11:04:03;;;;;;;11.43;2.80;;;;;;;24.92;35.39;94251.84;5082813;28;20020;-82
2023/09/27 11:06:31;;;;;;;15.00;3.15;;;;;;;24.99;35.59;94248.31;5064797;28;20228;-82
2023/09/27 11:09:12;;;;;;;12.32;3.05;;;;;;;24.86;35.34;94247.97;5082414;28;20338;-82
2023/09/27 11:11:38;;;;;;;8.70;2.42;;;;;;;24.87;36.02;94259.66;5082745;28;20032;-82
2023/09/27 11:14:03;;;;;;;9.40;2.80;;;;;;;24.92;36.51;94254.59;5082449;28;20041;-82
2023/09/27 11:16:29;;;;;;;12.80;2.53;;;;;;;24.80;36.48;94247.59;5082613;28;20021;-81
2023/09/27 11:18:57;;;;;;;11.30;3.05;;;;;;;24.68;36.78;94244.53;5082558;28;20062;-81
2023/09/27 11:21:26;;;;;;;8.25;3.70;;;;;;;24.52;37.36;94243.00;5081433;28;20012;-82
2023/09/27 11:24:00;;;;;;;9.82;3.75;;;;;;;24.55;38.09;94241.47;5064373;28;20054;-81
2023/09/27 11:26:33;;;;;;;11.52;3.00;;;;;;;24.65;38.35;94240.66;5082593;28;20027;-82
2023/09/27 11:29:05;;;;;;;20.90;3.42;;;;;;;24.63;38.50;94245.72;5082515;28;20020;-82